Time;durP1;ratioP1;P1;durP2;ratioP2;P2;SDS_P1;SDS_P2;PMS_P1;PMS_P2;Temp;Humidity;BMP_temperature;BMP_pressure;BME280_temperature;BME280_humidity;BME280_pressure;Samples;Min_cycle;Max_cycle;Signal;HPM_P1;HPM_P2
2024/02/08 00:02:23;;;;;;;10.70;3.80;;;;;;;6.86;76.74;97714.19;79224;1298;3011925;-64
2024/02/08 00:04:51;;;;;;;10.30;4.00;;;;;;;6.74;77.44;97710.17;78111;1296;3027712;-66
2024/02/08 00:07:18;;;;;;;8.50;3.60;;;;;;;6.81;77.11;97711.94;79373;1298;3013234;-68
2024/02/08 00:09:44;;;;;;;8.20;3.70;;;;;;;6.75;77.34;97714.16;79541;1301;3011807;-64
2024/02/08 00:12:14;;;;;;;8.90;3.70;;;;;;;6.69;77.42;97718.38;79209;1297;3025730;-63
2024/02/08 00:14:41;;;;;;;6.70;3.20;;;;;;;6.62;78.05;97721.34;79922;1298;3012917;-66
2024/02/08 00:17:07;;;;;;;8.90;3.50;;;;;;;7.13;77.42;97721.11;79180;1298;3013570;-65
2024/02/08 00:19:35;;;;;;;9.70;3.80;;;;;;;7.78;75.07;97724.27;78029;1296;3051564;-65
2024/02/08 00:22:02;;;;;;;11.10;4.40;;;;;;;7.78;74.26;97734.35;79373;1296;3020431;-65
2024/02/08 00:24:30;;;;;;;11.20;4.40;;;;;;;7.52;74.45;97734.41;79451;1296;3011933;-63
2024/02/08 00:26:59;;;;;;;13.00;4.80;;;;;;;7.34;75.13;97731.34;78074;1300;3050283;-64
2024/02/08 00:29:26;;;;;;;10.50;4.70;;;;;;;7.14;75.74;97737.23;79482;1301;3013198;-66
2024/02/08 00:31:53;;;;;;;9.70;4.00;;;;;;;6.93;76.57;97736.45;79417;1295;3011591;-63
2024/02/08 00:34:23;;;;;;;7.70;4.00;;;;;;;6.86;76.58;97743.26;78181;1298;3052042;-62
2024/02/08 00:36:50;;;;;;;7.00;3.90;;;;;;;6.73;77.15;97745.63;79615;1296;3012999;-63
2024/02/08 00:39:19;;;;;;;9.60;4.10;;;;;;;6.46;78.81;97747.67;78823;1300;3011932;-64
2024/02/08 00:41:49;;;;;;;5.00;3.10;;;;;;;6.41;79.09;97754.15;79135;1299;3013448;-64
2024/02/08 00:44:18;;;;;;;6.90;3.50;;;;;;;6.41;79.18;97755.88;78710;1295;3011464;-64
2024/02/08 00:46:45;;;;;;;7.70;2.80;;;;;;;6.33;79.45;97759.54;79202;1300;3021099;-64
2024/02/08 00:49:12;;;;;;;7.10;3.00;;;;;;;6.42;79.60;97764.35;79260;1298;3011732;-63
2024/02/08 00:51:40;;;;;;;7.60;2.70;;;;;;;6.96;78.56;97762.86;77889;1299;3027915;-63
2024/02/08 00:54:08;;;;;;;9.00;2.90;;;;;;;7.44;76.41;97765.82;79220;1296;3013711;-62
2024/02/08 00:56:34;;;;;;;7.90;3.40;;;;;;;7.39;76.15;97777.55;79246;1296;3012867;-63
2024/02/08 00:59:02;;;;;;;9.40;3.00;;;;;;;7.23;76.25;97777.85;78061;1299;3051736;-62
2024/02/08 01:01:31;;;;;;;7.10;4.00;;;;;;;6.94;77.01;97786.02;79321;1298;3018371;-63
2024/02/08 01:04:02;;;;;;;6.80;3.70;;;;;;;6.62;78.70;97769.70;78847;1296;3011765;-64
2024/02/08 01:06:30;;;;;;;9.50;4.30;;;;;;;6.66;78.41;97772.39;79272;1299;3013022;-62
2024/02/08 01:08:59;;;;;;;9.40;4.40;;;;;;;6.52;78.75;97768.89;78736;1296;3013547;-64
2024/02/08 01:11:26;;;;;;;8.70;4.30;;;;;;;6.38;79.90;97770.30;79274;1296;3018637;-65
2024/02/08 01:13:52;;;;;;;9.80;4.50;;;;;;;6.35;79.66;97771.10;79300;1298;3013661;-63
2024/02/08 01:16:20;;;;;;;6.80;3.90;;;;;;;6.27;79.95;97770.95;78064;1298;3026272;-65
2024/02/08 01:18:48;;;;;;;5.90;3.10;;;;;;;6.19;80.27;97765.27;79330;1298;3013072;-65
2024/02/08 01:21:15;;;;;;;6.40;3.70;;;;;;;6.71;79.67;97759.31;79353;1298;3013311;-64
2024/02/08 01:23:46;;;;;;;6.80;3.70;;;;;;;7.14;78.11;97756.21;78192;1299;3051667;-66
2024/02/08 01:26:13;;;;;;;7.40;3.60;;;;;;;7.26;77.19;97771.14;79347;1295;3011655;-65
2024/02/08 01:28:41;;;;;;;10.70;4.90;;;;;;;6.97;77.18;97768.04;78698;1299;3011934;-64
2024/02/08 01:31:08;;;;;;;16.10;5.80;;;;;;;6.75;77.79;97765.49;79274;1298;3013658;-65
2024/02/08 01:33:36;;;;;;;25.50;7.10;;;;;;;6.31;79.48;97768.07;79381;1298;3012262;-65
2024/02/08 01:36:04;;;;;;;16.30;5.00;;;;;;;6.19;80.03;97764.03;78364;1300;3053292;-66
2024/02/08 01:38:31;;;;;;;19.60;6.00;;;;;;;6.31;79.32;97783.39;79391;1298;3013240;-64
2024/02/08 01:40:57;;;;;;;23.30;8.10;;;;;;;5.99;80.69;97777.37;79427;1299;3011655;-63
2024/02/08 01:43:25;;;;;;;24.30;7.50;;;;;;;5.87;81.22;97772.77;78032;1299;3048076;-62
2024/02/08 01:45:52;;;;;;;17.90;5.80;;;;;;;5.79;81.78;97781.51;79219;1298;3018526;-65
2024/02/08 01:48:18;;;;;;;14.50;4.60;;;;;;;6.59;80.82;97789.70;79340;1300;3011653;-66
2024/02/08 01:50:56;;;;;;;12.60;3.80;;;;;;;6.89;78.46;97799.79;78270;1299;3025798;-66
2024/02/08 01:53:27;;;;;;;6.70;3.80;;;;;;;6.99;77.46;97788.98;78103;1300;3069281;-64
2024/02/08 01:55:57;;;;;;;9.50;4.40;;;;;;;6.65;77.81;97796.80;79205;1300;3011621;-64
2024/02/08 01:58:25;;;;;;;10.90;5.30;;;;;;;6.42;78.35;97790.75;77997;1296;3055468;-64
2024/02/08 02:00:53;;;;;;;13.60;6.00;;;;;;;6.04;80.12;97789.19;79432;1298;3013713;-63
2024/02/08 02:03:19;;;;;;;11.70;5.50;;;;;;;5.81;81.03;97793.39;79436;1295;3011785;-65
2024/02/08 02:05:47;;;;;;;12.90;5.30;;;;;;;5.71;81.49;97801.29;78184;1298;3052409;-64
2024/02/08 02:08:26;;;;;;;13.20;5.20;;;;;;;5.67;81.61;97806.58;79436;1296;3013416;-63
2024/02/08 02:11:13;;;;;;;8.80;5.00;;;;;;;5.63;82.38;97815.38;77964;1297;3051356;-64
2024/02/08 02:13:41;;;;;;;7.90;4.90;;;;;;;6.38;81.21;97815.05;78166;1299;3056107;-64
2024/02/08 02:16:08;;;;;;;10.80;5.20;;;;;;;6.80;78.53;97817.12;79170;1296;3020717;-64
2024/02/08 02:18:36;;;;;;;11.70;5.30;;;;;;;6.68;78.21;97815.37;79342;1299;3012747;-64
2024/02/08 02:21:04;;;;;;;17.20;5.00;;;;;;;6.59;78.18;97812.88;78090;1298;3052944;-66
2024/02/08 02:23:31;;;;;;;14.30;6.10;;;;;;;6.40;78.57;97816.63;79361;1296;3011787;-64
2024/02/08 02:25:58;;;;;;;8.60;4.80;;;;;;;6.26;78.85;97817.06;79344;1299;3011377;-64
2024/02/08 02:28:27;;;;;;;12.20;5.60;;;;;;;6.14;79.39;97820.52;78100;1298;3057247;-64
2024/02/08 02:30:53;;;;;;;10.20;5.20;;;;;;;5.92;80.33;97815.71;79438;1295;3013879;-64
2024/02/08 02:33:20;;;;;;;12.30;5.10;;;;;;;5.85;80.31;97815.52;79289;1297;3013460;-64
2024/02/08 02:35:48;;;;;;;7.60;4.30;;;;;;;5.99;80.46;97818.39;78241;1298;3052675;-63
2024/02/08 02:38:17;;;;;;;10.60;4.00;;;;;;;6.47;79.98;97821.85;79261;1303;3013068;-66
2024/02/08 02:40:46;;;;;;;8.10;3.90;;;;;;;6.82;78.03;97824.34;79355;1298;3013385;-64
2024/02/08 02:43:14;;;;;;;7.00;3.80;;;;;;;6.85;77.28;97828.63;78115;1300;3055925;-64
2024/02/08 02:45:41;;;;;;;8.80;4.40;;;;;;;6.67;77.68;97831.08;79300;1295;3013406;-68
2024/02/08 02:48:08;;;;;;;7.80;3.90;;;;;;;6.49;78.06;97832.89;79384;1296;3011309;-64
2024/02/08 02:50:43;;;;;;;10.90;4.20;;;;;;;6.20;78.97;97840.65;78197;1298;3026761;-64
2024/02/08 02:53:11;;;;;;;8.20;4.40;;;;;;;6.09;79.47;97842.73;78223;1298;3052132;-64
2024/02/08 02:55:38;;;;;;;10.20;5.20;;;;;;;5.88;80.44;97858.18;79394;1298;3013179;-65
2024/02/08 02:58:05;;;;;;;12.30;6.30;;;;;;;5.80;80.82;97857.88;79393;1298;3011967;-66
2024/02/08 03:00:37;;;;;;;12.60;5.90;;;;;;;5.75;81.05;97858.90;78153;1298;3028664;-64
2024/02/08 03:03:11;;;;;;;11.10;5.20;;;;;;;5.77;80.99;97866.07;79324;1298;3012750;-63
2024/02/08 03:05:42;;;;;;;16.30;6.40;;;;;;;6.18;80.59;97869.61;78196;1298;3050478;-63
2024/02/08 03:08:10;;;;;;;12.50;5.60;;;;;;;6.82;78.39;97864.52;79308;1298;3011929;-64
2024/02/08 03:10:38;;;;;;;10.60;5.40;;;;;;;6.88;77.83;97864.38;78458;1296;3026428;-62
2024/02/08 03:13:07;;;;;;;13.90;5.80;;;;;;;6.81;77.63;97865.42;81972;1295;3018702;-64
2024/02/08 03:15:36;;;;;;;12.60;6.00;;;;;;;6.68;77.78;97873.52;82024;1294;3011516;-65
2024/02/08 03:18:04;;;;;;;12.60;5.30;;;;;;;6.38;78.42;97883.59;80727;1295;3049635;-64
2024/02/08 03:20:31;;;;;;;13.10;6.00;;;;;;;6.17;79.56;97880.31;81962;1296;3012815;-64
2024/02/08 03:22:58;;;;;;;16.30;6.90;;;;;;;5.85;80.74;97883.41;81951;1295;3011391;-64
2024/02/08 03:25:26;;;;;;;14.80;7.00;;;;;;;5.65;82.20;97889.64;80655;1298;3026565;-64
2024/02/08 03:27:53;;;;;;;18.60;7.80;;;;;;;5.77;81.65;97891.96;81977;1295;3012981;-65
2024/02/08 03:30:20;;;;;;;11.30;5.20;;;;;;;5.72;82.21;97891.93;81915;1297;3011403;-64
2024/02/08 03:32:49;;;;;;;9.30;4.20;;;;;;;6.57;80.60;97877.70;80682;1295;3048881;-66
2024/02/08 03:35:19;;;;;;;11.50;4.50;;;;;;;6.93;78.05;97883.41;81966;1295;3012522;-64
2024/02/08 03:37:48;;;;;;;9.50;4.80;;;;;;;6.87;77.99;97887.66;80702;1297;3051470;-63
2024/02/08 03:40:20;;;;;;;13.70;5.60;;;;;;;6.63;78.29;97890.58;82038;1295;3012494;-64
2024/02/08 03:42:49;;;;;;;13.50;5.70;;;;;;;6.62;78.28;97894.95;80740;1295;3050689;-67
2024/02/08 03:45:23;;;;;;;13.00;6.70;;;;;;;6.49;78.44;97894.42;81983;1296;3012766;-67
2024/02/08 03:47:51;;;;;;;19.10;8.60;;;;;;;6.27;79.25;97897.66;80765;1295;3052551;-65
2024/02/08 03:50:18;;;;;;;21.80;11.30;;;;;;;6.05;80.13;97899.89;82041;1298;3012975;-65
2024/02/08 03:52:45;;;;;;;25.00;10.70;;;;;;;6.01;80.51;97896.82;82011;1295;3011192;-64
2024/02/08 03:55:16;;;;;;;22.30;11.20;;;;;;;5.99;80.47;97894.34;80745;1295;3026096;-63
2024/02/08 03:57:48;;;;;;;22.40;10.70;;;;;;;5.79;81.67;97900.66;82013;1294;3011448;-65
2024/02/08 04:00:27;;;;;;;19.30;8.50;;;;;;;5.95;81.52;97908.48;80742;1295;3056006;-64
2024/02/08 04:03:06;;;;;;;11.40;6.80;;;;;;;6.65;79.93;97906.05;80713;1295;3049634;-64
2024/02/08 04:05:37;;;;;;;9.60;5.20;;;;;;;7.14;78.23;97913.59;80758;1295;3053488;-63
2024/02/08 04:08:22;;;;;;;12.00;5.30;;;;;;;7.02;77.18;97918.60;81992;1296;3011240;-62
2024/02/08 04:54:59;;;;;;;7.20;4.20;;;;;;;6.40;78.53;97965.49;80782;1295;3053277;-65
2024/02/08 04:57:27;;;;;;;8.30;4.20;;;;;;;6.23;79.27;97971.40;81955;1295;3012541;-67
2024/02/08 04:59:53;;;;;;;8.40;4.40;;;;;;;6.14;79.93;97975.61;81967;1298;3011361;-64
2024/02/08 05:02:21;;;;;;;8.30;4.30;;;;;;;6.10;79.92;97983.14;80695;1295;3026654;-65
2024/02/08 05:04:48;;;;;;;7.90;4.70;;;;;;;6.06;80.02;97985.52;81989;1295;3018482;-65
2024/02/08 05:07:15;;;;;;;13.50;4.60;;;;;;;5.99;80.08;97983.00;81991;1294;3011095;-64
2024/02/08 05:09:43;;;;;;;11.50;5.20;;;;;;;5.94;80.18;97988.67;80803;1295;3025448;-66
2024/02/08 05:12:10;;;;;;;11.80;3.80;;;;;;;5.90;80.91;97990.65;82034;1294;3013059;-64
2024/02/08 05:14:38;;;;;;;8.90;4.00;;;;;;;6.50;79.47;97990.96;81988;1295;3011379;-63
2024/02/08 05:17:08;;;;;;;8.00;3.90;;;;;;;7.07;77.06;97995.56;80729;1295;3048052;-63
2024/02/08 05:19:35;;;;;;;10.50;4.10;;;;;;;6.98;76.03;98003.35;82057;1295;3011397;-63
2024/02/08 05:22:02;;;;;;;11.70;5.10;;;;;;;6.94;76.37;98011.79;82017;1295;3011345;-62
2024/02/08 05:24:30;;;;;;;9.70;4.60;;;;;;;6.75;76.63;98018.64;80776;1295;3052013;-63
2024/02/08 05:26:57;;;;;;;9.30;5.40;;;;;;;6.72;77.01;98025.66;82046;1295;3012768;-69
2024/02/08 05:29:24;;;;;;;15.80;6.10;;;;;;;6.41;77.70;98035.36;82018;1294;3011321;-64
2024/02/08 05:31:52;;;;;;;14.10;5.60;;;;;;;6.34;78.37;98031.49;80752;1295;3048242;-68
2024/02/08 05:34:21;;;;;;;11.00;5.00;;;;;;;6.31;78.28;98045.94;82011;1295;3012318;-68
2024/02/08 05:36:49;;;;;;;8.50;4.60;;;;;;;6.13;78.70;98049.71;82028;1295;3011212;-65
2024/02/08 05:39:23;;;;;;;12.20;5.40;;;;;;;6.10;79.15;98047.33;80747;1298;3052063;-66
2024/02/08 05:41:53;;;;;;;8.90;5.20;;;;;;;6.12;78.99;98037.25;81489;1295;3011366;-66
2024/02/08 05:44:20;;;;;;;9.60;4.80;;;;;;;6.04;79.21;98037.77;82024;1297;3011244;-66
2024/02/08 05:46:47;;;;;;;10.30;3.90;;;;;;;6.13;78.71;98037.86;82062;1295;3011535;-69
2024/02/08 05:49:16;;;;;;;7.40;3.50;;;;;;;6.09;78.53;98039.17;80762;1294;3048835;-65
2024/02/08 05:51:51;;;;;;;6.30;3.70;;;;;;;6.10;77.95;98038.79;82007;1295;3012473;-67
2024/02/08 05:54:36;;;;;;;6.90;3.40;;;;;;;6.11;77.84;98038.59;80795;1295;3052894;-63
2024/02/08 05:57:06;;;;;;;10.70;3.10;;;;;;;6.04;77.90;98040.90;80718;1295;3052863;-66
2024/02/08 05:59:33;;;;;;;9.00;2.90;;;;;;;6.06;77.41;98041.45;82036;1295;3013065;-66
2024/02/08 06:02:01;;;;;;;5.40;2.80;;;;;;;5.98;77.09;98043.73;82018;1295;3011425;-66
2024/02/08 06:04:35;;;;;;;6.50;2.60;;;;;;;5.87;77.58;98037.77;80738;1298;3049177;-67
2024/02/08 06:07:05;;;;;;;3.90;2.20;;;;;;;6.00;76.96;98045.52;82030;1295;3011354;-67
2024/02/08 06:12:28;;;;;;;5.10;2.30;;;;;;;6.02;75.23;98046.42;80790;1295;3052622;-66
2024/02/08 06:14:58;;;;;;;6.90;2.30;;;;;;;6.03;74.90;98044.98;80751;1295;3052560;-66
2024/02/08 06:17:38;;;;;;;4.50;2.50;;;;;;;6.00;74.65;98049.35;81996;1298;3012583;-67
2024/02/08 06:20:09;;;;;;;7.80;3.10;;;;;;;5.94;74.18;98064.09;80723;1295;3052087;-67
2024/02/08 06:22:39;;;;;;;5.00;2.60;;;;;;;5.88;73.66;98070.77;81938;1295;3011257;-66
2024/02/08 06:25:27;;;;;;;6.00;2.50;;;;;;;5.90;73.83;98067.12;80751;1297;3050550;-65
2024/02/08 06:27:57;;;;;;;4.00;2.30;;;;;;;5.95;73.34;98069.08;80701;1295;3055117;-66
2024/02/08 06:30:26;;;;;;;5.00;2.30;;;;;;;5.98;73.20;98071.50;81987;1295;3011044;-66
2024/02/08 06:33:07;;;;;;;3.10;1.80;;;;;;;5.95;72.70;98062.45;80737;1295;3025576;-65
2024/02/08 06:35:39;;;;;;;3.10;1.80;;;;;;;5.97;72.53;98055.60;80782;1295;3052371;-66
2024/02/08 06:38:13;;;;;;;5.90;2.00;;;;;;;6.05;72.68;98054.42;82002;1295;3011100;-66
2024/02/08 06:40:50;;;;;;;6.00;2.20;;;;;;;6.20;72.47;98066.63;80747;1296;3050785;-65
2024/02/08 06:48:42;;;;;;;4.40;1.50;;;;;;;6.21;71.15;98068.50;80757;1295;3052268;-70
2024/02/08 07:38:53;;;;;;;6.30;2.50;;;;;;;6.47;67.89;98103.31;80741;1295;3051625;-65
2024/02/08 07:41:12;;;;;;;5.50;2.20;;;;;;;6.44;67.66;98112.39;80709;1295;3051273;-66
2024/02/08 07:43:43;;;;;;;7.60;2.00;;;;;;;6.51;67.89;98120.84;82011;1295;3013074;-68
2024/02/08 07:46:16;;;;;;;10.70;2.50;;;;;;;6.41;67.74;98134.66;80698;1296;3056673;-68
2024/02/08 07:48:43;;;;;;;4.40;2.10;;;;;;;6.47;68.26;98133.45;82124;1294;3011241;-66
2024/02/08 07:51:15;;;;;;;4.10;2.20;;;;;;;6.60;68.08;98134.16;80825;1294;3052927;-71
2024/02/08 07:53:54;;;;;;;4.50;1.90;;;;;;;6.55;67.67;98128.05;82108;1294;3011517;-66
2024/02/08 07:58:56;;;;;;;3.00;1.90;;;;;;;6.42;67.67;98140.88;82094;1294;3018671;-70
2024/02/08 08:01:32;;;;;;;3.60;2.00;;;;;;;6.33;68.04;98145.66;80020;1293;3052817;-65
2024/02/08 08:04:00;;;;;;;3.70;1.80;;;;;;;6.34;68.11;98138.10;80797;1295;3057215;-63
2024/02/08 08:06:34;;;;;;;7.10;2.20;;;;;;;6.35;67.81;98144.99;82066;1294;3011406;-65
2024/02/08 08:09:18;;;;;;;16.50;3.70;;;;;;;6.49;67.35;98150.36;80792;1294;3049420;-67
2024/02/08 08:11:54;;;;;;;6.20;3.40;;;;;;;6.43;67.14;98163.08;80866;1297;3053107;-66
2024/02/08 08:15:13;;;;;;;9.10;4.00;;;;;;;6.40;67.21;98163.45;80845;1295;3050445;-66
2024/02/08 08:19:50;;;;;;;8.20;3.60;;;;;;;6.29;67.34;98179.29;82083;1294;3019026;-66
2024/02/08 08:27:53;;;;;;;9.10;3.70;;;;;;;6.33;67.67;98181.63;80803;1295;3049859;-65
2024/02/08 08:30:29;;;;;;;14.20;4.30;;;;;;;6.27;68.47;98178.89;80796;1295;3052849;-64
2024/02/08 08:38:27;;;;;;;20.70;8.70;;;;;;;6.46;68.76;98176.46;80808;1295;3051519;-66
2024/02/08 08:41:14;;;;;;;22.90;9.90;;;;;;;6.49;68.26;98182.02;80800;1295;3055308;-70
2024/02/08 08:43:52;;;;;;;33.40;11.80;;;;;;;6.35;68.78;98186.19;80778;1298;3048813;-65
2024/02/08 08:46:23;;;;;;;34.60;12.10;;;;;;;6.52;68.54;98191.19;80803;1294;3053651;-64
2024/02/08 08:48:50;;;;;;;33.50;11.10;;;;;;;6.68;67.56;98193.85;82067;1297;3011210;-64
2024/02/08 08:51:29;;;;;;;21.00;9.50;;;;;;;6.70;67.13;98199.45;81575;1294;3011402;-67
2024/02/08 08:54:00;;;;;;;21.40;7.00;;;;;;;6.58;66.41;98209.07;80866;1294;3050809;-65
2024/02/08 08:56:30;;;;;;;12.80;4.70;;;;;;;6.45;65.79;98220.66;82105;1294;3011314;-66
2024/02/08 08:59:01;;;;;;;10.90;4.40;;;;;;;6.41;65.35;98213.67;80858;1295;3050786;-64
2024/02/08 09:01:27;;;;;;;12.90;4.40;;;;;;;6.37;65.47;98217.02;82057;1294;3010944;-65
2024/02/08 09:04:09;;;;;;;16.50;4.10;;;;;;;6.39;65.66;98222.50;81563;1293;3011513;-64
2024/02/08 09:06:38;;;;;;;13.30;3.40;;;;;;;6.35;65.67;98224.33;80819;1294;3053298;-65
2024/02/08 09:11:57;;;;;;;4.40;2.10;;;;;;;6.19;65.99;98233.84;80799;1294;3051732;-64
2024/02/08 09:14:30;;;;;;;7.90;2.20;;;;;;;6.19;66.09;98225.64;82095;1295;3011563;-63
2024/02/08 09:16:58;;;;;;;6.10;2.60;;;;;;;6.30;66.17;98227.70;80821;1293;3068410;-66
2024/02/08 09:19:28;;;;;;;7.00;3.30;;;;;;;6.45;65.85;98226.08;82109;1293;3012845;-64
2024/02/08 09:24:44;;;;;;;9.10;3.50;;;;;;;6.48;66.05;98224.02;79976;1302;3012939;-65
2024/02/08 09:27:16;;;;;;;10.80;3.60;;;;;;;6.60;65.87;98222.87;78909;1302;3013179;-66
2024/02/08 09:29:55;;;;;;;9.00;3.70;;;;;;;6.68;65.47;98224.45;77872;1307;3049964;-66
2024/02/08 09:35:12;;;;;;;16.90;4.40;;;;;;;6.34;66.75;98227.46;77828;1305;3052016;-65
2024/02/08 09:37:47;;;;;;;10.80;3.90;;;;;;;6.30;66.97;98224.61;78783;1302;3013548;-66
2024/02/08 09:40:51;;;;;;;13.00;4.60;;;;;;;6.24;67.91;98217.88;77855;1301;3057691;-66
2024/02/08 09:43:16;;;;;;;11.50;6.50;;;;;;;6.18;68.56;98216.16;78004;1304;3048331;-66
2024/02/08 09:45:44;;;;;;;16.50;6.20;;;;;;;6.10;69.47;98218.53;79983;1301;3011912;-66
2024/02/08 09:48:25;;;;;;;14.50;5.90;;;;;;;6.11;70.01;98221.77;78410;1301;3049397;-66
2024/02/08 09:50:59;;;;;;;16.00;6.40;;;;;;;6.17;69.46;98223.70;78087;1304;3052244;-63
2024/02/08 09:53:27;;;;;;;15.20;5.90;;;;;;;6.12;70.30;98213.52;79303;1304;3011359;-66
2024/02/08 09:56:02;;;;;;;14.10;6.20;;;;;;;6.17;70.60;98209.60;77932;1301;3067836;-65
2024/02/08 09:58:35;;;;;;;19.10;6.90;;;;;;;6.17;70.68;98202.27;77811;1300;3051202;-64
2024/02/08 10:01:21;;;;;;;17.80;6.90;;;;;;;6.03;70.57;98208.17;79257;1300;3012171;-65
2024/02/08 10:03:49;;;;;;;20.50;5.80;;;;;;;5.96;70.70;98209.44;77917;1300;3049503;-66
2024/02/08 10:06:38;;;;;;;18.00;5.60;;;;;;;5.87;71.40;98216.58;79118;1304;3018583;-66
2024/02/08 10:11:58;;;;;;;13.70;4.60;;;;;;;5.80;71.64;98214.95;77965;1305;3052659;-63
2024/02/08 10:14:34;;;;;;;10.10;4.70;;;;;;;5.84;72.39;98207.77;79267;1304;3011876;-65
2024/02/08 10:17:15;;;;;;;12.40;4.50;;;;;;;5.95;72.15;98206.05;77916;1304;3052011;-66
2024/02/08 10:28:23;;;;;;;9.50;4.30;;;;;;;5.93;72.20;98207.56;78467;1304;3050397;-65
2024/02/08 10:30:59;;;;;;;6.30;4.10;;;;;;;5.88;72.64;98208.75;79751;1300;3013560;-64
2024/02/08 10:33:35;;;;;;;9.40;3.20;;;;;;;5.76;72.94;98211.68;78180;1298;3070152;-65
2024/02/08 10:36:10;;;;;;;7.50;3.30;;;;;;;5.83;72.74;98209.55;78245;1301;3050441;-66
2024/02/08 10:38:57;;;;;;;6.80;3.10;;;;;;;5.89;72.39;98211.13;78426;1299;3056885;-66
2024/02/08 10:41:35;;;;;;;8.80;3.40;;;;;;;5.97;72.60;98208.73;78213;1300;3049336;-66
2024/02/08 10:44:17;;;;;;;7.30;3.80;;;;;;;5.99;72.24;98211.73;78417;1299;3054042;-64
2024/02/08 10:46:48;;;;;;;10.70;4.10;;;;;;;6.03;71.46;98214.61;78353;1294;3049844;-67
2024/02/08 10:49:14;;;;;;;14.40;3.50;;;;;;;6.07;71.09;98212.64;79383;1298;3013106;-66
2024/02/08 10:51:43;;;;;;;8.50;3.60;;;;;;;6.13;70.81;98208.99;78947;1299;3012367;-65
2024/02/08 10:54:16;;;;;;;9.00;4.00;;;;;;;6.23;71.02;98201.94;79456;1300;3019324;-67
2024/02/08 10:57:06;;;;;;;12.80;4.00;;;;;;;6.27;70.30;98203.41;78195;1298;3057431;-65
2024/02/08 10:59:47;;;;;;;8.70;3.70;;;;;;;6.29;69.71;98206.23;78126;1298;3051057;-65
2024/02/08 11:02:31;;;;;;;8.70;3.70;;;;;;;6.15;69.72;98205.90;78379;1300;3054007;-62
2024/02/08 11:07:53;;;;;;;7.20;3.70;;;;;;;5.97;70.55;98207.30;78328;1294;3053269;-65
2024/02/08 11:10:23;;;;;;;6.40;3.60;;;;;;;5.99;71.03;98210.67;79033;1300;3011547;-66
2024/02/08 11:12:52;;;;;;;6.70;3.90;;;;;;;6.12;71.16;98208.52;79392;1298;3013375;-66
2024/02/08 11:15:30;;;;;;;9.60;5.00;;;;;;;6.34;70.49;98207.47;79210;1295;3012889;-66
2024/02/08 11:18:02;;;;;;;7.80;4.10;;;;;;;6.37;70.51;98208.27;78238;1300;3051729;-67
2024/02/08 11:20:44;;;;;;;15.20;4.10;;;;;;;6.39;70.85;98209.05;79627;1295;3011679;-67
2024/02/08 11:23:23;;;;;;;8.70;5.30;;;;;;;6.49;70.49;98215.20;78222;1300;3049341;-67
2024/02/08 11:25:52;;;;;;;10.00;5.40;;;;;;;6.27;70.50;98222.35;78175;1295;3053268;-65
2024/02/08 11:28:26;;;;;;;8.90;5.30;;;;;;;6.24;70.88;98226.73;79500;1299;3013566;-67
2024/02/08 11:30:54;;;;;;;11.40;4.90;;;;;;;6.11;71.06;98225.41;78390;1301;3053370;-66
2024/02/08 11:33:40;;;;;;;16.10;5.50;;;;;;;6.05;70.43;98223.34;79413;1295;3019225;-66
2024/02/08 11:36:22;;;;;;;15.70;5.80;;;;;;;5.97;70.97;98220.90;78032;1300;3055805;-66
